Time;durP1;ratioP1;P1;durP2;ratioP2;P2;SDS_P1;SDS_P2;PMS_P1;PMS_P2;Temp;Humidity;BMP_temperature;BMP_pressure;BME280_temperature;BME280_humidity;BME280_pressure;Samples;Min_cycle;Max_cycle;Signal;HPM_P1;HPM_P2
2022/04/05 00:01:15;;;;;;;;;5.33;5.00;;;;;10.89;100.00;101024.78;6335217;22;45422;-94
2022/04/05 00:03:40;;;;;;;;;9.67;8.00;;;;;10.85;100.00;101025.44;6334436;22;45265;-94
2022/04/05 00:06:05;;;;;;;;;8.33;5.33;;;;;10.90;100.00;101028.31;6334926;22;45206;-95
2022/04/05 00:08:31;;;;;;;;;11.67;9.00;;;;;10.88;100.00;101024.69;6339992;22;47170;-93
2022/04/05 00:10:56;;;;;;;;;6.33;6.33;;;;;10.84;100.00;101019.31;6333984;22;45310;-94
2022/04/05 00:13:22;;;;;;;;;9.33;7.00;;;;;10.84;100.00;101015.78;6335100;22;45899;-93
2022/04/05 00:15:47;;;;;;;;;6.33;6.33;;;;;10.85;100.00;101004.41;6334969;22;45404;-94
2022/04/05 00:18:16;;;;;;;;;10.25;7.00;;;;;10.89;100.00;101016.00;6334750;22;47249;-93
2022/04/05 00:20:41;;;;;;;;;8.50;6.50;;;;;10.87;100.00;101018.56;6335006;22;45344;-93
2022/04/05 00:23:07;;;;;;;;;8.25;7.25;;;;;10.95;100.00;101021.56;6334482;22;45445;-94
2022/04/05 00:25:35;;;;;;;;;6.50;6.50;;;;;10.81;100.00;100999.84;6334948;22;45497;-94
2022/04/05 00:28:02;;;;;;;;;10.50;7.25;;;;;10.84;100.00;101008.81;6335058;22;47692;-94
2022/04/05 00:30:27;;;;;;;;;8.00;8.00;;;;;10.91;100.00;101009.97;6335943;22;45612;-95
2022/04/05 00:32:52;;;;;;;;;8.00;5.33;;;;;10.91;100.00;101011.69;6336590;22;45320;-93
2022/04/05 00:35:18;;;;;;;;;4.33;4.33;;;;;10.90;100.00;101005.53;6335634;22;45174;-92
2022/04/05 00:37:43;;;;;;;;;9.00;6.33;;;;;10.81;100.00;100987.63;6337944;22;46209;-93
2022/04/05 00:40:09;;;;;;;;;10.25;8.25;;;;;10.95;100.00;101019.78;6362992;22;45256;-94
2022/04/05 00:42:37;;;;;;;;;8.75;8.75;;;;;10.79;100.00;100984.03;6361519;22;45260;-94
2022/04/05 00:45:05;;;;;;;;;6.25;5.75;;;;;10.91;100.00;101009.97;6335886;22;45517;-93
2022/04/05 00:47:30;;;;;;;;;9.25;9.00;;;;;10.84;100.00;100993.03;6335715;22;47237;-94
2022/04/05 00:49:56;;;;;;;;;7.50;6.25;;;;;10.87;100.00;100999.25;6362682;22;45328;-94
2022/04/05 00:52:23;;;;;;;;;9.00;8.75;;;;;10.77;100.00;100975.16;6336192;22;45325;-94
2022/04/05 00:54:50;;;;;;;;;8.50;7.25;;;;;10.84;100.00;100994.75;6336178;22;45237;-93
2022/04/05 00:57:21;;;;;;;;;7.00;7.00;;;;;10.74;100.00;100972.41;6307975;22;47941;-95
2022/04/05 00:59:57;;;;;;;;;9.75;7.25;;;;;10.74;100.00;100977.66;6308910;22;45276;-94
2022/04/05 01:02:27;;;;;;;;;6.00;4.50;;;;;10.75;100.00;100976.81;6308812;22;45343;-93
2022/04/05 01:04:53;;;;;;;;;4.00;2.00;;;;;10.77;100.00;100976.91;6309713;22;45487;-93
2022/04/05 01:07:22;;;;;;;;;8.50;7.50;;;;;10.74;100.00;100972.41;6308737;22;47068;-93
2022/04/05 01:09:53;;;;;;;;;7.75;7.75;;;;;10.76;100.00;100959.34;6309019;22;45479;-92
2022/04/05 01:12:20;;;;;;;;;7.50;6.75;;;;;10.70;100.00;100958.22;6334987;22;45356;-94
2022/04/05 01:14:45;;;;;;;;;5.00;5.00;;;;;10.73;100.00;100965.34;6308120;22;45258;-93
2022/04/05 01:17:13;;;;;;;;;6.00;5.00;;;;;10.73;100.00;100961.00;6334262;22;47062;-93
2022/04/05 01:19:38;;;;;;;;;7.00;6.00;;;;;10.77;100.00;100955.91;6309114;22;45348;-93
2022/04/05 01:22:06;;;;;;;;;8.33;7.67;;;;;10.75;100.00;100954.91;6333380;22;45334;-94
2022/04/05 01:24:32;;;;;;;;;7.00;7.00;;;;;10.71;100.00;100952.16;6334941;22;45423;-92
2022/04/05 01:26:59;;;;;;;;;8.75;8.75;;;;;10.69;100.00;100937.16;6306859;22;47652;-92
2022/04/05 01:29:27;;;;;;;;;7.00;7.00;;;;;10.74;100.00;100943.53;6307763;22;45673;-93
2022/04/05 01:31:55;;;;;;;;;7.67;7.67;;;;;10.76;100.00;100940.97;6307744;22;45305;-94
2022/04/05 01:34:25;;;;;;;;;8.00;8.00;;;;;10.80;100.00;100933.31;6335050;22;45464;-92
2022/04/05 01:36:53;;;;;;;;;4.67;3.33;;;;;10.75;100.00;100919.06;6332620;22;47670;-94
2022/04/05 01:39:22;;;;;;;;;8.00;8.00;;;;;10.76;100.00;100926.13;6333739;22;45884;-93
2022/04/05 01:41:52;;;;;;;;;9.00;8.33;;;;;10.80;100.00;100925.44;6334707;22;45381;-92
2022/04/05 01:44:18;;;;;;;;;11.00;7.67;;;;;10.80;100.00;100929.78;6307354;22;45299;-93
2022/04/05 01:46:43;;;;;;;;;7.00;7.00;;;;;10.80;100.00;100929.78;6334258;22;47351;-93
2022/04/05 01:49:10;;;;;;;;;8.00;7.00;;;;;10.71;100.00;100907.53;6307837;22;45205;-94
2022/04/05 01:51:37;;;;;;;;;6.00;4.67;;;;;10.71;100.00;100910.16;6309117;22;45418;-93
2022/04/05 01:54:07;;;;;;;;;8.50;8.50;;;;;10.76;100.00;100905.13;6334253;22;45340;-94
2022/04/05 01:56:53;;;;;;;;;9.00;8.00;;;;;10.71;100.00;100896.13;6326622;22;47094;-93
2022/04/05 01:59:25;;;;;;;;;8.75;6.50;;;;;10.78;100.00;100907.81;6332562;22;45492;-93
2022/04/05 02:01:50;;;;;;;;;7.50;7.50;;;;;10.78;100.00;100906.06;6336249;22;45466;-93
2022/04/05 02:04:16;;;;;;;;;4.75;4.75;;;;;10.79;100.00;100907.91;6335896;22;45442;-93
2022/04/05 02:06:43;;;;;;;;;6.67;6.67;;;;;10.75;100.00;100902.41;6333035;22;47217;-93
2022/04/05 02:09:13;;;;;;;;;7.50;7.50;;;;;10.83;100.00;100903.66;6333573;22;45327;-93
2022/04/05 02:11:41;;;;;;;;;10.00;9.50;;;;;10.82;100.00;100901.88;6333583;22;45390;-93
2022/04/05 02:14:07;;;;;;;;;8.25;8.00;;;;;10.73;100.00;100887.50;6333117;22;45543;-93
2022/04/05 02:16:33;;;;;;;;;7.00;4.50;;;;;10.75;100.00;100903.31;6333542;22;46879;-92
2022/04/05 02:18:59;;;;;;;;;7.00;6.00;;;;;10.85;100.00;100912.50;6360566;22;46150;-93
2022/04/05 02:21:24;;;;;;;;;8.00;8.00;;;;;10.81;100.00;100907.94;6333741;22;45264;-93
2022/04/05 02:23:49;;;;;;;;;8.00;5.75;;;;;10.77;100.00;100900.78;6360998;22;45189;-93
2022/04/05 02:26:15;;;;;;;;;6.33;6.00;;;;;10.76;100.00;100891.09;6336142;22;46343;-94
2022/04/05 02:28:41;;;;;;;;;9.75;8.25;;;;;10.76;100.00;100881.47;6333820;22;45702;-93
2022/04/05 02:31:07;;;;;;;;;10.00;6.33;;;;;10.80;100.00;100890.38;6360555;22;45571;-94
2022/04/05 02:33:32;;;;;;;;;6.00;6.00;;;;;10.80;100.00;100895.63;6334147;22;45315;-94
2022/04/05 02:35:57;;;;;;;;;6.75;4.25;;;;;10.82;100.00;100889.63;6333572;22;47033;-93
2022/04/05 02:38:23;;;;;;;;;9.50;8.00;;;;;10.77;100.00;100866.63;6333167;22;45626;-93
2022/04/05 02:40:48;;;;;;;;;7.00;7.00;;;;;10.77;100.00;100866.63;6334688;22;45614;-91
2022/04/05 02:43:15;;;;;;;;;8.00;7.00;;;;;10.78;100.00;100865.78;6333477;22;45440;-92
2022/04/05 02:45:41;;;;;;;;;5.33;5.00;;;;;10.81;100.00;100868.56;6335938;22;45383;-93
2022/04/05 02:48:06;;;;;;;;;7.50;7.50;;;;;10.77;100.00;100864.88;6333679;22;45234;-92
2022/04/05 02:50:32;;;;;;;;;7.75;7.75;;;;;10.74;100.00;100851.63;6384117;22;44837;-93
2022/04/05 02:52:57;;;;;;;;;7.50;7.50;;;;;10.78;100.00;100860.53;6363741;22;44933;-92
2022/04/05 02:55:23;;;;;;;;;8.33;6.67;;;;;10.79;100.00;100841.34;6360079;22;46935;-92
2022/04/05 02:57:50;;;;;;;;;8.67;7.33;;;;;10.84;100.00;100856.50;6352804;22;44760;-93
2022/04/05 03:00:16;;;;;;;;;10.00;8.00;;;;;10.76;100.00;100846.44;6335691;22;45338;-93
2022/04/05 03:02:42;;;;;;;;;7.00;7.00;;;;;10.75;100.00;100837.66;6334593;22;45435;-93
2022/04/05 03:05:08;;;;;;;;;7.67;6.33;;;;;10.79;100.00;100842.25;6332189;22;48248;-92
2022/04/05 03:07:35;;;;;;;;;7.33;5.00;;;;;10.77;100.00;100832.50;6360300;22;45434;-93
2022/04/05 03:10:07;;;;;;;;;7.50;6.50;;;;;10.71;100.00;100819.97;6333524;22;45650;-93
2022/04/05 03:12:34;;;;;;;;;6.50;6.50;;;;;10.70;100.00;100818.16;6359256;22;45696;-92
2022/04/05 03:14:59;;;;;;;;;8.00;7.00;;;;;10.77;100.00;100836.00;6333791;22;48192;-93
2022/04/05 03:17:25;;;;;;;;;7.25;6.25;;;;;10.77;100.00;100832.50;6359437;22;45654;-92
2022/04/05 03:19:50;;;;;;;;;7.75;7.50;;;;;10.77;100.00;100824.63;6360771;22;45437;-92
2022/04/05 03:22:18;;;;;;;;;7.50;6.25;;;;;10.77;100.00;100819.38;6334090;22;45277;-93
2022/04/05 03:24:44;;;;;;;;;6.75;5.75;;;;;10.76;100.00;100825.44;6333194;22;46951;-92
2022/04/05 03:27:09;;;;;;;;;8.00;7.75;;;;;10.73;100.00;100813.06;6332557;22;45324;-93
2022/04/05 03:29:34;;;;;;;;;6.33;5.33;;;;;10.81;100.00;100819.56;6360023;22;45661;-92
2022/04/05 03:32:02;;;;;;;;;7.00;5.50;;;;;10.81;100.00;100821.31;6335650;22;45545;-94
2022/04/05 03:34:28;;;;;;;;;6.25;6.25;;;;;10.86;100.00;100822.41;6334426;22;47276;-94
2022/04/05 03:36:54;;;;;;;;;6.75;5.25;;;;;10.75;100.00;100797.38;6359998;22;45421;-94
2022/04/05 03:39:20;;;;;;;;;10.25;6.00;;;;;10.80;100.00;100803.72;6334033;22;45343;-93
2022/04/05 03:41:46;;;;;;;;;4.75;4.50;;;;;10.88;100.00;100815.50;6359361;22;45312;-94
2022/04/05 03:44:12;;;;;;;;;7.75;4.75;;;;;10.78;100.00;100794.91;6332517;22;46815;-92
2022/04/05 03:46:56;;;;;;;;;6.00;5.75;;;;;10.73;100.00;100781.56;6333106;22;45252;-93
2022/04/05 03:49:21;;;;;;;;;4.00;3.00;;;;;10.78;100.00;100787.91;6333092;22;45251;-93
2022/04/05 03:51:47;;;;;;;;;8.00;7.00;;;;;10.80;100.00;100790.59;6332956;22;45552;-94
2022/04/05 03:54:12;;;;;;;;;4.67;4.67;;;;;10.70;100.00;100763.94;6359979;22;47334;-93
2022/04/05 03:56:37;;;;;;;;;9.33;8.00;;;;;10.78;100.00;100759.03;6332823;22;45289;-94
2022/04/05 03:59:03;;;;;;;;;6.67;6.67;;;;;10.77;100.00;100764.25;6335606;22;45380;-93
2022/04/05 04:01:28;;;;;;;;;5.33;1.67;;;;;10.72;100.00;100761.41;6358996;22;45566;-93
2022/04/05 04:03:54;;;;;;;;;3.00;3.00;;;;;10.78;100.00;100771.25;6361697;22;46923;-92
2022/04/05 04:06:19;;;;;;;;;7.00;7.00;;;;;10.73;100.00;100765.81;6334504;22;45237;-93
2022/04/05 04:08:45;;;;;;;;;8.33;6.33;;;;;10.72;100.00;100759.66;6335194;22;45219;-94
2022/04/05 04:11:10;;;;;;;;;3.00;3.00;;;;;10.68;100.00;100748.94;6334372;22;45613;-92
2022/04/05 04:13:35;;;;;;;;;5.00;5.00;;;;;10.68;100.00;100741.97;6336588;22;45251;-93
2022/04/05 04:16:01;;;;;;;;;8.00;6.00;;;;;10.66;100.00;100735.78;6360707;22;45431;-93
2022/04/05 04:18:26;;;;;;;;;7.00;5.33;;;;;10.59;100.00;100710.94;6362084;22;45408;-94
2022/04/05 04:20:52;;;;;;;;;6.50;5.00;;;;;10.63;100.00;100718.97;6359898;22;45569;-93
2022/04/05 04:23:17;;;;;;;;;5.67;4.33;;;;;10.64;100.00;100720.78;6308380;22;48162;-93
2022/04/05 04:25:42;;;;;;;;;7.00;5.00;;;;;10.66;100.00;100709.53;6333163;22;45675;-93
2022/04/05 04:28:09;;;;;;;;;7.67;5.00;;;;;10.57;100.00;100698.59;6334140;22;45402;-92
2022/04/05 04:30:38;;;;;;;;;7.00;7.00;;;;;10.59;100.00;100689.94;6360774;22;45430;-93
2022/04/05 04:33:08;;;;;;;;;8.00;3.00;;;;;10.57;100.00;100693.34;6334652;22;47264;-93
2022/04/05 04:35:34;;;;;;;;;7.67;4.00;;;;;10.45;100.00;100691.03;6334164;22;45813;-93
2022/04/05 04:38:01;;;;;;;;;7.25;6.00;;;;;10.55;100.00;100692.38;6333966;22;45441;-93
2022/04/05 04:40:26;;;;;;;;;4.00;4.00;;;;;10.55;100.00;100698.53;6333631;22;45418;-92
2022/04/05 04:42:52;;;;;;;;;4.00;3.33;;;;;10.53;100.00;100689.69;6333233;22;47208;-93
2022/04/05 04:45:18;;;;;;;;;8.33;7.00;;;;;10.55;100.00;100692.38;6334347;22;45859;-93
2022/04/05 04:47:43;;;;;;;;;7.33;5.67;;;;;10.52;100.00;100684.38;6334660;22;45296;-92
2022/04/05 04:50:12;;;;;;;;;3.67;3.00;;;;;10.86;100.00;100692.84;6360176;22;45323;-93
2022/04/05 04:52:38;;;;;;;;;6.25;6.25;;;;;10.93;100.00;100692.25;6334148;22;48386;-93
2022/04/05 04:55:07;;;;;;;;;7.25;5.00;;;;;11.37;100.00;100705.50;6336619;22;45408;-94
2022/04/05 04:57:33;;;;;;;;;7.00;7.00;;;;;10.76;100.00;100697.69;6334775;22;45268;-94
2022/04/05 05:00:01;;;;;;;;;8.00;7.75;;;;;10.61;100.00;100671.66;6334664;22;45265;-93
2022/04/05 05:02:30;;;;;;;;;1.00;1.00;;;;;10.53;100.00;100652.06;6308381;22;48017;-94
2022/04/05 05:04:55;;;;;;;;;3.67;3.67;;;;;10.54;100.00;100654.72;6308519;22;45394;-94
2022/04/05 05:07:20;;;;;;;;;5.67;4.33;;;;;10.56;100.00;100671.47;6334053;22;45762;-93
2022/04/05 05:09:46;;;;;;;;;7.25;7.25;;;;;10.60;100.00;100662.88;6308211;22;45242;-95
2022/04/05 05:12:11;;;;;;;;;4.00;4.00;;;;;10.62;100.00;100662.94;6306735;22;48367;-94
2022/04/05 05:14:40;;;;;;;;;5.67;5.67;;;;;10.48;100.00;100641.31;6334321;22;45542;-94
2022/04/05 05:17:06;;;;;;;;;5.67;4.00;;;;;10.59;100.00;100660.22;6309190;22;45523;-95
2022/04/05 05:19:32;;;;;;;;;6.67;5.67;;;;;10.52;100.00;100638.03;6309802;22;45634;-94
2022/04/05 05:22:00;;;;;;;;;4.00;4.00;;;;;10.57;100.00;100646.09;6307478;22;48358;-95
2022/04/05 05:24:26;;;;;;;;;8.33;7.00;;;;;10.55;100.00;100646.03;6308134;22;45441;-94
2022/04/05 05:26:55;;;;;;;;;7.33;7.00;;;;;10.52;100.00;100627.53;6308133;22;45343;-94
2022/04/05 05:29:20;;;;;;;;;6.33;5.67;;;;;10.57;100.00;100641.75;6334842;22;45429;-94
2022/04/05 05:31:45;;;;;;;;;5.33;5.33;;;;;10.55;100.00;100634.63;6308027;22;47046;-94
2022/04/05 05:34:11;;;;;;;;;6.67;6.00;;;;;10.56;100.00;100624.22;6308363;22;45443;-94
2022/04/05 05:36:36;;;;;;;;;4.33;4.33;;;;;10.63;100.00;100633.25;6333864;22;45406;-93
2022/04/05 05:39:05;;;;;;;;;4.00;4.00;;;;;10.65;100.00;100642.09;6310811;22;45512;-94
2022/04/05 05:41:30;;;;;;;;;6.67;6.00;;;;;10.65;100.00;100630.69;6335740;22;46817;-94
2022/04/05 05:43:56;;;;;;;;;7.67;5.00;;;;;10.63;100.00;100633.25;6309221;22;45639;-93
2022/04/05 05:46:21;;;;;;;;;8.00;5.67;;;;;10.71;100.00;100645.00;6336484;22;45256;-94
2022/04/05 05:48:47;;;;;;;;;9.00;8.00;;;;;10.75;100.00;100635.50;6309717;22;45202;-94
2022/04/05 05:51:12;;;;;;;;;6.67;3.67;;;;;10.77;100.00;100638.22;6333568;22;46799;-94
2022/04/05 05:53:38;;;;;;;;;8.67;8.33;;;;;10.80;100.00;100641.84;6308322;22;45359;-95
2022/04/05 05:56:03;;;;;;;;;8.00;6.67;;;;;10.82;100.00;100640.19;6348109;22;45202;-94
2022/04/05 05:58:29;;;;;;;;;8.33;8.00;;;;;10.82;100.00;100632.28;6334842;22;45374;-94
2022/04/05 06:00:55;;;;;;;;;6.00;4.00;;;;;10.79;100.00;100626.03;6335030;22;47319;-94
2022/04/05 06:03:20;;;;;;;;;7.67;4.33;;;;;10.84;100.00;100635.00;6334311;22;45273;-94
2022/04/05 06:05:51;;;;;;;;;4.75;4.75;;;;;10.87;100.00;100637.78;6334415;22;45284;-94
2022/04/05 06:08:17;;;;;;;;;4.33;4.33;;;;;10.89;100.00;100638.72;6361441;22;45320;-93
2022/04/05 06:10:43;;;;;;;;;9.00;8.00;;;;;10.87;100.00;100634.25;6362266;22;47239;-93
2022/04/05 06:13:08;;;;;;;;;5.33;4.00;;;;;10.82;100.00;100623.56;6337730;22;45386;-92
2022/04/05 06:15:34;;;;;;;;;6.00;6.00;;;;;10.83;100.00;100631.47;6336396;22;45442;-94
2022/04/05 06:18:00;;;;;;;;;6.00;4.33;;;;;10.89;100.00;100643.97;6333987;22;45522;-93
2022/04/05 06:20:27;;;;;;;;;4.00;3.00;;;;;10.90;100.00;100637.88;6361837;22;47270;-93
2022/04/05 06:23:01;;;;;;;;;7.67;4.00;;;;;10.98;100.00;100634.69;6335086;22;45470;-92
2022/04/05 06:25:35;;;;;;;;;7.33;7.00;;;;;11.04;100.00;100650.69;6333417;22;45331;-88
2022/04/05 06:28:06;;;;;;;;;7.33;6.33;;;;;11.00;100.00;100617.28;6337733;22;45150;-86
2022/04/05 06:30:33;;;;;;;;;4.33;4.00;;;;;11.01;100.00;100626.94;6348336;22;46936;-86
2022/04/05 06:33:08;;;;;;;;;7.75;5.25;;;;;11.08;100.00;100639.47;6348373;22;45203;-86
2022/04/05 06:35:34;;;;;;;;;4.67;4.00;;;;;11.20;100.00;100639.09;6342673;22;45177;-85
2022/04/05 06:38:00;;;;;;;;;7.67;6.33;;;;;11.14;100.00;100641.47;6335331;22;45308;-86
2022/04/05 06:40:26;;;;;;;;;9.00;6.75;;;;;11.12;100.00;100632.63;6333422;22;45327;-87
2022/04/05 06:42:51;;;;;;;;;6.67;6.33;;;;;11.11;100.00;100604.56;6332160;22;45713;-86
2022/04/05 06:45:19;;;;;;;;;7.33;5.33;;;;;11.08;100.00;100617.59;6357252;22;45462;-87
2022/04/05 06:47:45;;;;;;;;;6.33;4.00;;;;;11.09;100.00;100598.34;6356433;22;45447;-87
2022/04/05 06:50:14;;;;;;;;;10.33;7.00;;;;;11.11;100.00;100613.34;6331615;22;45583;-86
2022/04/05 06:52:41;;;;;;;;;6.50;3.50;;;;;11.14;100.00;100608.22;6357200;22;45719;-87
2022/04/05 06:55:08;;;;;;;;;7.00;4.00;;;;;11.18;100.00;100582.97;6332503;22;45327;-87
2022/04/05 06:57:34;;;;;;;;;5.33;5.00;;;;;11.14;100.00;100595.09;6303357;22;45545;-87
2022/04/05 06:59:59;;;;;;;;;6.67;6.67;;;;;11.18;100.00;100599.63;6303723;22;48512;-87
2022/04/05 07:02:24;;;;;;;;;7.00;7.00;;;;;11.22;100.00;100591.88;6332537;22;45309;-87
2022/04/05 07:04:50;;;;;;;;;4.67;4.67;;;;;11.23;100.00;100596.31;6326944;22;45717;-87
2022/04/05 07:07:15;;;;;;;;;3.00;3.00;;;;;11.26;100.00;100584.16;6331716;22;45300;-88
2022/04/05 07:09:42;;;;;;;;;8.33;7.33;;;;;11.29;100.00;100592.16;6330886;22;47500;-87
2022/04/05 07:12:07;;;;;;;;;8.00;5.67;;;;;11.33;100.00;100587.94;6329904;22;45279;-87
2022/04/05 07:14:33;;;;;;;;;5.67;5.67;;;;;11.37;100.00;100581.06;6329285;22;45376;-87
2022/04/05 07:16:59;;;;;;;;;6.67;5.67;;;;;11.43;100.00;100575.16;6335687;22;45347;-88
2022/04/05 07:19:24;;;;;;;;;8.67;4.00;;;;;11.47;100.00;100574.44;6304938;22;47122;-87
2022/04/05 07:21:50;;;;;;;;;4.67;4.67;;;;;11.52;100.00;100565.00;6302681;22;45390;-88
2022/04/05 07:24:16;;;;;;;;;7.00;6.00;;;;;11.52;100.00;100557.09;6333521;22;45288;-87
2022/04/05 07:26:41;;;;;;;;;4.67;4.67;;;;;11.57;100.00;100571.31;6333107;22;45273;-87
2022/04/05 07:29:07;;;;;;;;;6.50;6.50;;;;;11.56;100.00;100566.91;6325674;22;47139;-87
2022/04/05 07:31:32;;;;;;;;;4.33;4.00;;;;;11.59;100.00;100566.16;6330645;22;45268;-87
2022/04/05 07:33:57;;;;;;;;;5.33;4.00;;;;;11.60;100.00;100560.94;6329723;22;45276;-87
2022/04/05 07:36:23;;;;;;;;;4.67;4.67;;;;;11.66;100.00;100562.91;6329953;22;45541;-87
2022/04/05 07:38:48;;;;;;;;;8.33;7.33;;;;;11.73;100.00;100571.91;6305485;22;46826;-87
2022/04/05 07:41:13;;;;;;;;;6.33;4.67;;;;;11.77;100.00;100562.41;6305086;22;45249;-88
2022/04/05 07:43:39;;;;;;;;;3.67;3.67;;;;;11.84;100.00;100583.75;6331557;22;45353;-87
2022/04/05 07:46:04;;;;;;;;;4.33;4.33;;;;;11.85;100.00;100576.75;6304651;22;45466;-88
2022/04/05 07:48:30;;;;;;;;;5.33;5.33;;;;;11.87;100.00;100577.72;6305982;22;47143;-88
2022/04/05 07:50:56;;;;;;;;;4.00;4.00;;;;;11.90;100.00;100572.56;6305692;22;45422;-89
2022/04/05 07:53:22;;;;;;;;;4.00;3.33;;;;;11.90;100.00;100559.41;6301877;22;45309;-89
2022/04/05 07:55:48;;;;;;;;;5.33;5.33;;;;;12.03;100.00;100559.84;6331437;22;45445;-94
2022/04/05 07:58:13;;;;;;;;;7.33;5.33;;;;;12.05;100.00;100564.34;6333644;22;46895;-91
2022/04/05 08:00:38;;;;;;;;;6.00;4.00;;;;;12.11;100.00;100563.63;6334041;22;45826;-90
2022/04/05 08:03:05;;;;;;;;;6.33;5.33;;;;;12.14;100.00;100566.41;6335104;22;45209;-90
2022/04/05 08:05:30;;;;;;;;;7.33;5.33;;;;;12.14;100.00;100560.25;6304629;22;45344;-92
2022/04/05 08:07:56;;;;;;;;;4.00;3.00;;;;;12.15;100.00;100568.22;6332806;22;46399;-91
2022/04/05 08:10:22;;;;;;;;;4.33;4.00;;;;;12.17;100.00;100578.78;6330308;22;45764;-91
2022/04/05 08:12:49;;;;;;;;;4.67;4.67;;;;;12.16;100.00;100571.75;6298321;22;45423;-93
2022/04/05 08:15:21;;;;;;;;;4.33;4.33;;;;;12.19;100.00;100579.75;6332771;22;45451;-90
2022/04/05 08:17:48;;;;;;;;;6.67;4.67;;;;;12.21;100.00;100577.19;6333138;22;46385;-89
2022/04/05 08:20:14;;;;;;;;;9.67;4.00;;;;;12.21;100.00;100577.19;6332661;22;45647;-90
2022/04/05 08:22:41;;;;;;;;;7.67;7.00;;;;;12.18;100.00;100570.06;6302314;22;45790;-89
2022/04/05 08:25:08;;;;;;;;;9.00;5.33;;;;;12.26;100.00;100566.00;6333267;22;45403;-89
2022/04/05 08:27:34;;;;;;;;;8.00;4.33;;;;;12.27;100.00;100564.22;6333228;22;47529;-89
2022/04/05 08:30:00;;;;;;;;;7.33;5.00;;;;;12.29;100.00;100557.31;6330689;22;45456;-91
2022/04/05 08:32:26;;;;;;;;;9.00;8.00;;;;;12.39;100.00;100574.31;6303814;22;45327;-90
2022/04/05 08:34:52;;;;;;;;;8.33;7.33;;;;;12.35;100.00;100556.59;6333227;22;45387;-90
2022/04/05 08:37:17;;;;;;;;;6.33;6.33;;;;;12.44;100.00;100575.38;6331623;22;45383;-89
2022/04/05 08:39:43;;;;;;;;;9.00;6.00;;;;;12.43;100.00;100562.13;6332575;22;45503;-90
2022/04/05 08:42:09;;;;;;;;;7.00;7.00;;;;;12.39;100.00;100535.72;6332741;22;45347;-94
2022/04/05 08:44:35;;;;;;;;;6.33;4.67;;;;;12.45;100.00;100555.19;6306235;22;45532;-93
2022/04/05 08:47:02;;;;;;;;;5.67;4.00;;;;;12.50;100.00;100562.41;6332183;22;47843;-91
2022/04/05 08:49:29;;;;;;;;;9.00;7.00;;;;;12.56;100.00;100558.19;6307229;22;46215;-90
2022/04/05 08:51:55;;;;;;;;;8.00;7.33;;;;;12.56;100.00;100560.81;6339692;22;45277;-96
2022/04/05 08:54:21;;;;;;;;;5.67;5.33;;;;;12.60;100.00;100537.28;6308261;22;45347;-94
2022/04/05 08:56:47;;;;;;;;;5.33;3.00;;;;;12.63;100.00;100555.81;6328961;22;46974;-95
2022/04/05 08:59:13;;;;;;;;;7.33;7.33;;;;;12.65;100.00;100561.16;6358311;22;45714;-89
2022/04/05 09:01:40;;;;;;;;;9.67;8.33;;;;;12.77;100.00;100560.66;6333239;22;45438;-91
2022/04/05 09:04:06;;;;;;;;;8.00;7.00;;;;;12.84;100.00;100567.91;6360702;22;45468;-94
2022/04/05 09:06:33;;;;;;;;;5.33;4.67;;;;;12.92;100.00;100578.72;6328976;22;48276;-92
2022/04/05 09:09:13;;;;;;;;;6.67;6.33;;;;;12.97;100.00;100565.69;6332320;22;45302;-90
2022/04/05 09:11:45;;;;;;;;;8.00;8.00;;;;;13.07;100.00;100583.59;6356747;22;45714;-89
2022/04/05 09:14:11;;;;;;;;;9.00;5.00;;;;;13.12;100.00;100580.19;6327968;22;45487;-93
2022/04/05 09:16:37;;;;;;;;;5.00;4.00;;;;;13.20;100.00;100583.97;6330948;22;47080;-88
2022/04/05 09:19:09;;;;;;;;;8.33;8.33;;;;;13.28;100.00;100590.38;6356329;22;45673;-88
2022/04/05 09:21:58;;;;;;;;;8.00;6.33;;;;;13.40;100.00;100599.53;6355173;22;45230;-88
2022/04/05 09:24:33;;;;;;;;;5.00;4.67;;;;;13.48;100.00;100597.13;6329759;22;45387;-89
2022/04/05 09:26:59;;;;;;;;;4.00;4.00;;;;;13.50;100.00;100608.63;6354449;22;47258;-88
2022/04/05 09:29:51;;;;;;;;;8.67;5.00;;;;;13.48;100.00;100611.19;6325001;22;45569;-87
2022/04/05 09:32:36;;;;;;;;;7.67;7.67;;;;;13.51;100.00;100607.75;6323854;22;45347;-87
2022/04/05 09:35:03;;;;;;;;;12.00;8.33;;;;;13.56;100.00;100606.16;6329184;22;45454;-87
2022/04/05 09:37:28;;;;;;;;;8.00;6.33;;;;;13.61;100.00;100606.34;6328765;22;47163;-88
2022/04/05 09:40:13;;;;;;;;;6.33;5.67;;;;;13.67;100.00;100600.34;6356683;22;45839;-87
2022/04/05 09:42:57;;;;;;;;;8.33;6.00;;;;;13.76;100.00;100607.66;6356155;22;45335;-88
2022/04/05 09:45:41;;;;;;;;;7.33;6.00;;;;;13.83;100.00;100625.47;6330682;22;45653;-87
2022/04/05 09:48:08;;;;;;;;;11.00;9.33;;;;;13.89;100.00;100616.84;6332123;22;45444;-88
2022/04/05 09:51:02;;;;;;;;;9.67;7.33;;;;;14.03;100.00;100620.78;6332208;22;45735;-88
2022/04/05 09:53:38;;;;;;;;;10.00;5.00;;;;;14.03;100.00;100630.44;6332721;22;45371;-88
2022/04/05 09:56:10;;;;;;;;;6.67;6.67;;;;;13.99;100.00;100637.38;6335220;22;45245;-88
2022/04/05 09:58:43;;;;;;;;;9.00;7.33;;;;;13.94;100.00;100645.13;6331660;22;45337;-87
2022/04/05 10:01:11;;;;;;;;;8.00;5.00;;;;;13.88;100.00;100650.25;6304191;22;45555;-87
2022/04/05 10:03:39;;;;;;;;;9.33;8.00;;;;;13.82;100.00;100650.94;6334563;22;45394;-87
2022/04/05 10:06:05;;;;;;;;;5.00;5.00;;;;;13.79;100.00;100642.03;6348251;22;45207;-89
2022/04/05 10:08:32;;;;;;;;;5.00;4.67;;;;;13.78;100.00;100642.91;6354116;22;46479;-90
2022/04/05 10:10:57;;;;;;;;;8.33;7.00;;;;;13.71;100.00;100639.19;6328849;22;45310;-90
2022/04/05 10:13:23;;;;;;;;;5.33;4.33;;;;;13.71;100.00;100641.81;6357524;22;44735;-89
2022/04/05 10:15:51;;;;;;;;;9.00;9.00;;;;;13.66;100.00;100643.44;6305700;22;45468;-89
2022/04/05 10:18:18;;;;;;;;;8.33;6.67;;;;;13.62;100.00;100640.69;6304270;22;48142;-88
2022/04/05 10:20:48;;;;;;;;;6.00;6.00;;;;;13.64;100.00;100640.72;6333549;22;45222;-89
2022/04/05 10:23:18;;;;;;;;;6.67;6.33;;;;;13.63;100.00;100650.38;6306308;22;45238;-91
2022/04/05 10:25:46;;;;;;;;;7.67;7.67;;;;;13.63;100.00;100634.53;6334616;22;45393;-90
2022/04/05 10:28:15;;;;;;;;;9.00;7.67;;;;;13.72;100.00;100641.88;6310516;22;48123;-91
2022/04/05 10:30:48;;;;;;;;;8.67;7.67;;;;;13.79;100.00;100636.75;6339934;22;45301;-92
2022/04/05 10:33:43;;;;;;;;;5.67;5.67;;;;;13.85;100.00;100629.03;6340511;22;45329;-89
2022/04/05 10:36:10;;;;;;;;;8.00;5.67;;;;;13.89;100.00;100641.47;6332562;22;45304;-89
2022/04/05 10:38:35;;;;;;;;;5.33;5.33;;;;;13.94;100.00;100645.13;6331953;22;46037;-89
2022/04/05 10:41:19;;;;;;;;;8.33;5.00;;;;;13.96;100.00;100646.09;6302909;22;45570;-91
2022/04/05 10:43:46;;;;;;;;;9.00;8.00;;;;;13.98;100.00;100648.78;6333478;22;45405;-89
2022/04/05 10:46:11;;;;;;;;;8.33;6.00;;;;;13.98;100.00;100632.03;6333306;22;45367;-90
2022/04/05 10:48:52;;;;;;;;;13.75;12.75;;;;;14.06;100.00;100635.81;6304742;22;46070;-89
2022/04/05 10:51:30;;;;;;;;;7.67;7.00;;;;;14.11;100.00;100638.56;6333571;22;45244;-89
2022/04/05 10:54:18;;;;;;;;;5.00;5.00;;;;;14.12;100.00;100638.59;6334960;22;45195;-89
2022/04/05 10:57:15;;;;;;;;;7.67;5.00;;;;;14.12;100.00;100650.94;6324881;22;45600;-91
2022/04/05 10:59:49;;;;;;;;;6.00;5.00;;;;;14.11;100.00;100636.84;6359894;22;48043;-87
2022/04/05 11:02:36;;;;;;;;;9.33;7.67;;;;;14.19;100.00;100650.25;6357843;22;45309;-93
2022/04/05 11:05:25;;;;;;;;;4.67;4.00;;;;;14.26;100.00;100651.31;6332626;22;45512;-90
2022/04/05 11:07:59;;;;;;;;;12.00;6.33;;;;;14.34;100.00;100649.78;6332364;22;45525;-90
2022/04/05 11:10:37;;;;;;;;;5.00;5.00;;;;;14.40;100.00;100646.44;6356408;22;47226;-91
2022/04/05 11:13:06;;;;;;;;;5.00;4.33;;;;;14.41;100.00;100650.84;6357487;22;45925;-90
2022/04/05 11:15:40;;;;;;;;;3.67;3.67;;;;;14.41;100.00;100656.13;6356865;22;45610;-89
2022/04/05 11:18:07;;;;;;;;;5.00;5.00;;;;;14.38;100.00;100646.38;6335025;22;45317;-90
2022/04/05 11:20:34;;;;;;;;;7.33;5.00;;;;;14.40;100.00;100657.00;6359106;22;47401;-90